createdAt,value
2017-12-31T00:00:41.872Z,48.00
2017-12-31T00:01:42.578Z,67.00
2017-12-31T00:02:43.285Z,47.00
2017-12-31T00:03:43.993Z,21.00
2017-12-31T00:04:44.714Z,37.00
2017-12-31T00:05:45.425Z,53.00
2017-12-31T00:06:46.135Z,29.00
2017-12-31T00:07:46.844Z,47.00
2017-12-31T00:08:47.553Z,57.00
2017-12-31T00:09:48.262Z,49.00
2017-12-31T00:10:48.971Z,70.00
2017-12-31T00:11:49.682Z,45.00
2017-12-31T00:12:50.387Z,32.00
2017-12-31T00:13:51.095Z,42.00
2017-12-31T00:14:51.804Z,61.00
2017-12-31T00:15:52.512Z,25.00
2017-12-31T00:16:53.217Z,27.00
2017-12-31T00:17:53.925Z,74.00
2017-12-31T00:18:54.633Z,73.00
2017-12-31T00:19:55.341Z,62.00
2017-12-31T00:20:56.051Z,52.00
2017-12-31T00:21:56.758Z,69.00
2017-12-31T00:22:57.478Z,32.00
2017-12-31T00:23:58.185Z,34.00
2017-12-31T00:24:58.906Z,43.00
2017-12-31T00:25:59.629Z,44.00
2017-12-31T00:27:00.337Z,55.00
2017-12-31T00:28:01.048Z,29.00
2017-12-31T00:29:01.754Z,38.00
2017-12-31T00:30:02.462Z,41.00
2017-12-31T00:31:03.168Z,61.00
2017-12-31T00:32:03.877Z,36.00
2017-12-31T00:33:04.587Z,47.00
2017-12-31T00:34:05.294Z,35.00
2017-12-31T00:35:06.002Z,28.00
2017-12-31T00:36:06.709Z,42.00
2017-12-31T00:37:07.419Z,40.00
2017-12-31T00:38:08.126Z,46.00
2017-12-31T00:39:08.834Z,39.00
2017-12-31T00:40:09.556Z,22.00
2017-12-31T00:41:10.278Z,46.00
2017-12-31T00:42:10.989Z,40.00
2017-12-31T00:43:11.698Z,53.00
2017-12-31T00:44:12.409Z,46.00
2017-12-31T00:45:13.119Z,59.00
2017-12-31T00:46:13.839Z,46.00
2017-12-31T00:47:14.563Z,37.00
2017-12-31T00:48:15.271Z,41.00
2017-12-31T00:49:15.999Z,32.00
2017-12-31T00:50:16.703Z,64.00
2017-12-31T00:51:17.412Z,60.00
2017-12-31T00:52:18.133Z,27.00
2017-12-31T00:53:18.843Z,31.00
2017-12-31T00:54:19.552Z,55.00
2017-12-31T00:55:20.260Z,38.00
2017-12-31T00:56:20.968Z,21.00
2017-12-31T00:57:21.676Z,71.00
2017-12-31T00:58:22.387Z,61.00
2017-12-31T00:59:23.093Z,52.00
2017-12-31T01:00:23.803Z,36.00
2017-12-31T01:01:24.515Z,36.00
2017-12-31T01:02:25.238Z,49.00
2017-12-31T01:03:25.945Z,39.00
2017-12-31T01:04:26.654Z,47.00
2017-12-31T01:05:27.384Z,41.00
2017-12-31T01:06:28.086Z,60.00
2017-12-31T01:07:28.810Z,41.00
2017-12-31T01:08:29.521Z,60.00
2017-12-31T01:09:30.231Z,30.00
2017-12-31T01:10:30.942Z,46.00
2017-12-31T01:11:31.650Z,56.00
2017-12-31T01:12:32.359Z,54.00
2017-12-31T01:13:33.068Z,48.00
2017-12-31T01:14:33.777Z,39.00
2017-12-31T01:15:34.484Z,34.00
2017-12-31T01:16:35.194Z,51.00
2017-12-31T01:17:35.903Z,59.00
2017-12-31T01:18:36.611Z,57.00
2017-12-31T01:19:37.333Z,29.00
2017-12-31T01:20:38.041Z,52.00
2017-12-31T01:21:38.749Z,36.00
2017-12-31T01:22:39.458Z,43.00
2017-12-31T01:23:40.182Z,62.00
2017-12-31T01:24:40.903Z,55.00
2017-12-31T01:25:41.625Z,70.00
2017-12-31T01:26:42.334Z,44.00
2017-12-31T01:27:43.044Z,60.00
2017-12-31T01:28:43.753Z,58.00
2017-12-31T01:29:44.463Z,97.00
2017-12-31T01:30:45.173Z,43.00
2017-12-31T01:31:45.886Z,26.00
2017-12-31T01:32:46.606Z,47.00
2017-12-31T01:33:47.326Z,32.00
2017-12-31T01:34:48.035Z,37.00
2017-12-31T01:35:48.744Z,64.00
2017-12-31T01:36:49.458Z,39.00
2017-12-31T01:37:50.162Z,39.00
2017-12-31T01:38:50.870Z,46.00
2017-12-31T01:39:51.578Z,43.00
2017-12-31T01:40:52.286Z,60.00
2017-12-31T01:41:52.995Z,34.00
2017-12-31T01:42:53.705Z,52.00
2017-12-31T01:43:54.411Z,59.00
2017-12-31T01:44:55.121Z,57.00
2017-12-31T01:45:55.831Z,24.00
2017-12-31T01:46:56.542Z,36.00
2017-12-31T01:47:57.256Z,43.00
2017-12-31T01:48:57.963Z,60.00
2017-12-31T01:49:58.672Z,41.00
2017-12-31T01:50:59.380Z,49.00
2017-12-31T01:52:00.091Z,34.00
2017-12-31T01:53:00.811Z,34.00
2017-12-31T01:54:01.533Z,67.00
2017-12-31T01:55:02.242Z,40.00
2017-12-31T01:56:02.950Z,20.00
2017-12-31T01:57:03.660Z,42.00
2017-12-31T01:58:04.368Z,30.00
2017-12-31T01:59:05.079Z,47.00
2017-12-31T02:00:05.789Z,44.00
2017-12-31T02:01:06.499Z,46.00
2017-12-31T02:02:07.206Z,21.00
2017-12-31T02:03:07.913Z,22.00
2017-12-31T02:04:08.620Z,18.00
2017-12-31T02:05:09.331Z,64.00
2017-12-31T02:06:10.053Z,17.00
2017-12-31T02:07:10.763Z,31.00
2017-12-31T02:08:11.469Z,21.00
2017-12-31T02:09:12.178Z,28.00
2017-12-31T02:10:12.885Z,19.00
2017-12-31T02:11:13.607Z,13.00
2017-12-31T02:12:14.317Z,32.00
2017-12-31T02:13:15.027Z,57.00
2017-12-31T02:14:15.736Z,51.00
2017-12-31T02:15:16.444Z,10.00
2017-12-31T02:16:17.153Z,25.00
2017-12-31T02:17:17.873Z,16.00
2017-12-31T02:18:18.594Z,40.00
2017-12-31T02:19:19.301Z,32.00
2017-12-31T02:20:20.027Z,33.00
2017-12-31T02:21:20.732Z,60.00
2017-12-31T02:22:21.440Z,30.00
2017-12-31T02:23:22.147Z,19.00
2017-12-31T02:24:22.855Z,36.00
2017-12-31T02:25:23.608Z,41.00
2017-12-31T02:26:24.271Z,21.00
2017-12-31T02:27:24.994Z,46.00
2017-12-31T02:28:25.703Z,42.00
2017-12-31T02:29:26.411Z,47.00
2017-12-31T02:30:27.135Z,40.00
2017-12-31T02:31:27.855Z,9.00
2017-12-31T02:32:28.561Z,12.00
2017-12-31T02:33:29.280Z,22.00
2017-12-31T02:34:29.988Z,16.00
2017-12-31T02:35:30.696Z,43.00
2017-12-31T02:36:31.417Z,41.00
2017-12-31T02:37:32.125Z,33.00
2017-12-31T02:38:32.833Z,32.00
2017-12-31T02:39:33.543Z,40.00
2017-12-31T02:40:34.268Z,38.00
2017-12-31T02:41:34.971Z,50.00
2017-12-31T02:42:35.678Z,34.00
2017-12-31T02:43:36.384Z,26.00
2017-12-31T02:44:37.093Z,21.00
2017-12-31T02:45:37.803Z,44.00
2017-12-31T02:46:38.512Z,27.00
2017-12-31T02:47:39.232Z,16.00
2017-12-31T02:48:39.941Z,41.00
2017-12-31T02:49:40.653Z,29.00
2017-12-31T02:50:41.360Z,31.00
2017-12-31T02:51:42.070Z,20.00
2017-12-31T02:52:42.779Z,34.00
2017-12-31T02:53:43.539Z,30.00
2017-12-31T02:54:44.198Z,36.00
2017-12-31T02:55:44.906Z,60.00
2017-12-31T02:56:45.621Z,36.00
2017-12-31T02:57:46.325Z,43.00
2017-12-31T02:58:47.044Z,43.00
2017-12-31T02:59:47.751Z,37.00
2017-12-31T03:00:48.459Z,41.00
2017-12-31T03:01:49.181Z,24.00
2017-12-31T03:02:49.891Z,29.00
2017-12-31T03:03:50.611Z,17.00
2017-12-31T03:04:51.334Z,41.00
2017-12-31T03:05:52.041Z,31.00
2017-12-31T03:06:52.749Z,38.00
2017-12-31T03:07:53.456Z,54.00
2017-12-31T03:08:54.164Z,33.00
2017-12-31T03:09:54.886Z,45.00
2017-12-31T03:10:55.609Z,36.00
2017-12-31T03:11:56.316Z,35.00
2017-12-31T03:12:57.025Z,53.00
2017-12-31T03:13:57.733Z,62.00
2017-12-31T03:14:58.458Z,26.00
2017-12-31T03:15:59.167Z,44.00
2017-12-31T03:16:59.875Z,41.00
2017-12-31T03:18:00.597Z,31.00
2017-12-31T03:19:01.307Z,36.00
2017-12-31T03:20:02.017Z,41.00
2017-12-31T03:21:02.724Z,52.00
2017-12-31T03:22:03.432Z,46.00
2017-12-31T03:23:04.139Z,44.00
2017-12-31T03:24:04.847Z,48.00
2017-12-31T03:25:05.555Z,46.00
2017-12-31T03:26:06.278Z,35.00
2017-12-31T03:27:06.998Z,31.00
2017-12-31T03:28:07.706Z,41.00
2017-12-31T03:29:08.414Z,67.00
2017-12-31T03:30:09.124Z,34.00
2017-12-31T03:31:09.835Z,32.00
2017-12-31T03:32:10.554Z,44.00
2017-12-31T03:33:11.263Z,41.00
2017-12-31T03:34:11.973Z,42.00
2017-12-31T03:35:12.684Z,56.00
2017-12-31T03:36:13.393Z,45.00
2017-12-31T03:37:14.102Z,42.00
2017-12-31T03:38:14.816Z,53.00
2017-12-31T03:39:15.519Z,36.00
2017-12-31T03:40:16.225Z,31.00
2017-12-31T03:41:16.933Z,37.00
2017-12-31T03:42:17.640Z,33.00
2017-12-31T03:43:18.347Z,48.00
2017-12-31T03:44:19.060Z,36.00
2017-12-31T03:45:19.763Z,32.00
2017-12-31T03:46:20.484Z,34.00
2017-12-31T03:47:21.194Z,40.00
2017-12-31T03:48:21.902Z,31.00
2017-12-31T03:49:22.612Z,26.00
2017-12-31T03:50:23.319Z,54.00
2017-12-31T03:51:24.044Z,49.00
2017-12-31T03:52:24.766Z,39.00
2017-12-31T03:53:25.475Z,41.00
2017-12-31T03:54:26.183Z,60.00
2017-12-31T03:55:26.892Z,35.00
2017-12-31T03:56:27.616Z,68.00
2017-12-31T03:57:28.324Z,46.00
2017-12-31T03:58:29.034Z,51.00
2017-12-31T03:59:29.740Z,36.00
2017-12-31T04:00:30.448Z,37.00
2017-12-31T04:01:31.155Z,57.00
2017-12-31T04:02:31.861Z,54.00
2017-12-31T04:03:32.572Z,58.00
2017-12-31T04:04:33.277Z,45.00
2017-12-31T04:05:33.987Z,28.00
2017-12-31T04:06:34.693Z,38.00
2017-12-31T04:07:35.400Z,37.00
2017-12-31T04:08:36.121Z,77.00
2017-12-31T04:09:36.829Z,56.00
2017-12-31T04:10:37.536Z,30.00
2017-12-31T04:11:38.243Z,46.00
2017-12-31T04:12:38.966Z,30.00
2017-12-31T04:13:39.675Z,47.00
2017-12-31T04:14:40.383Z,37.00
2017-12-31T04:15:41.091Z,42.00
2017-12-31T04:16:41.799Z,32.00
2017-12-31T04:17:42.507Z,44.00
2017-12-31T04:18:43.228Z,36.00
2017-12-31T04:19:43.950Z,52.00
2017-12-31T04:20:44.657Z,51.00
2017-12-31T04:21:45.364Z,47.00
2017-12-31T04:22:46.070Z,39.00
2017-12-31T04:23:46.791Z,38.00
2017-12-31T04:24:47.499Z,35.00
2017-12-31T04:25:48.221Z,28.00
2017-12-31T04:26:48.927Z,34.00
2017-12-31T04:27:49.637Z,37.00
2017-12-31T04:28:50.345Z,34.00
2017-12-31T04:29:51.053Z,29.00
2017-12-31T04:30:51.759Z,39.00
2017-12-31T04:31:52.468Z,43.00
2017-12-31T04:32:53.172Z,54.00
2017-12-31T04:33:53.894Z,33.00
2017-12-31T04:34:54.602Z,50.00
2017-12-31T04:35:55.311Z,26.00
2017-12-31T04:36:56.019Z,31.00
2017-12-31T04:37:56.727Z,32.00
2017-12-31T04:38:57.437Z,29.00
2017-12-31T04:39:58.159Z,31.00
2017-12-31T04:40:58.865Z,34.00
2017-12-31T04:41:59.572Z,29.00
2017-12-31T04:43:00.294Z,44.00
2017-12-31T04:44:01.004Z,25.00
2017-12-31T04:45:01.722Z,34.00
2017-12-31T04:46:02.428Z,27.00
2017-12-31T04:47:03.135Z,40.00
2017-12-31T04:48:03.855Z,51.00
2017-12-31T04:49:04.578Z,22.00
2017-12-31T04:50:05.299Z,29.00
2017-12-31T04:51:06.006Z,26.00
2017-12-31T04:52:06.730Z,34.00
2017-12-31T04:53:07.447Z,30.00
2017-12-31T04:54:08.156Z,36.00
2017-12-31T04:55:08.876Z,31.00
2017-12-31T04:56:09.583Z,34.00
2017-12-31T04:57:10.292Z,40.00
2017-12-31T04:58:10.997Z,28.00
2017-12-31T04:59:11.703Z,22.00
2017-12-31T05:00:12.409Z,33.00
2017-12-31T05:01:13.136Z,21.00
2017-12-31T05:02:13.837Z,31.00
2017-12-31T05:03:14.543Z,27.00
2017-12-31T05:04:15.265Z,21.00
2017-12-31T05:05:15.973Z,24.00
2017-12-31T05:06:16.683Z,19.00
2017-12-31T05:07:17.453Z,38.00
2017-12-31T05:08:18.106Z,15.00
2017-12-31T05:09:18.824Z,39.00
2017-12-31T05:10:19.533Z,24.00
2017-12-31T05:11:20.240Z,26.00
2017-12-31T05:12:20.946Z,24.00
2017-12-31T05:13:21.651Z,10.00
2017-12-31T05:14:22.359Z,45.00
2017-12-31T05:15:23.067Z,21.00
2017-12-31T05:16:23.774Z,26.00
2017-12-31T05:17:24.499Z,32.00
2017-12-31T05:18:25.217Z,30.00
2017-12-31T05:19:25.922Z,22.00
2017-12-31T05:20:26.629Z,22.00
2017-12-31T05:21:27.336Z,25.00
2017-12-31T05:22:28.045Z,22.00
2017-12-31T05:23:28.753Z,25.00
2017-12-31T05:24:29.460Z,10.00
2017-12-31T05:25:30.171Z,29.00
2017-12-31T05:26:30.890Z,22.00
2017-12-31T05:27:31.612Z,22.00
2017-12-31T05:28:32.318Z,14.00
2017-12-31T05:29:33.039Z,17.00
2017-12-31T05:30:33.745Z,20.00
2017-12-31T05:31:34.454Z,14.00
2017-12-31T05:32:35.163Z,14.00
2017-12-31T05:33:35.871Z,22.00
2017-12-31T05:34:36.578Z,25.00
2017-12-31T05:35:37.285Z,29.00
2017-12-31T05:36:37.994Z,21.00
2017-12-31T05:37:38.700Z,15.00
2017-12-31T05:38:39.407Z,13.00
2017-12-31T05:39:40.115Z,17.00
2017-12-31T05:40:40.823Z,18.00
2017-12-31T05:41:41.531Z,17.00
2017-12-31T05:42:42.237Z,8.00
2017-12-31T05:43:42.947Z,18.00
2017-12-31T05:44:43.668Z,13.00
2017-12-31T05:45:44.373Z,12.00
2017-12-31T05:46:45.083Z,19.00
2017-12-31T05:47:45.788Z,11.00
2017-12-31T05:48:46.495Z,16.00
2017-12-31T05:49:47.216Z,18.00
2017-12-31T05:50:47.926Z,8.00
2017-12-31T05:51:48.629Z,4.00
2017-12-31T05:52:49.348Z,20.00
2017-12-31T05:53:50.056Z,11.00
2017-12-31T05:54:50.766Z,17.00
2017-12-31T05:55:51.487Z,12.00
2017-12-31T05:56:52.206Z,29.00
2017-12-31T05:57:52.913Z,10.00
2017-12-31T05:58:53.621Z,19.00
2017-12-31T05:59:54.345Z,8.00
2017-12-31T06:00:55.062Z,13.00
2017-12-31T06:01:55.768Z,14.00
2017-12-31T06:02:56.478Z,13.00
2017-12-31T06:03:57.181Z,22.00
2017-12-31T06:04:57.891Z,11.00
2017-12-31T06:05:58.608Z,20.00
2017-12-31T06:06:59.318Z,18.00
2017-12-31T06:08:00.040Z,11.00
2017-12-31T06:09:00.748Z,12.00
2017-12-31T06:10:01.457Z,5.00
2017-12-31T06:11:02.177Z,13.00
2017-12-31T06:12:02.883Z,9.00
2017-12-31T06:13:03.590Z,17.00
2017-12-31T06:14:04.308Z,16.00
2017-12-31T06:15:05.032Z,16.00
2017-12-31T06:16:05.751Z,11.00
2017-12-31T06:17:06.459Z,21.00
2017-12-31T06:18:07.165Z,9.00
2017-12-31T06:19:07.872Z,18.00
2017-12-31T06:20:08.576Z,8.00
2017-12-31T06:21:09.283Z,13.00
2017-12-31T06:22:10.003Z,33.00
2017-12-31T06:23:10.710Z,5.00
2017-12-31T06:24:11.431Z,4.00
2017-12-31T06:25:12.140Z,6.00
2017-12-31T06:26:12.848Z,16.00
2017-12-31T06:27:13.558Z,12.00
2017-12-31T06:28:14.271Z,17.00
2017-12-31T06:29:14.979Z,13.00
2017-12-31T06:30:15.682Z,27.00
2017-12-31T06:31:16.389Z,6.00
2017-12-31T06:32:17.096Z,17.00
2017-12-31T06:33:17.818Z,12.00
2017-12-31T06:34:18.524Z,12.00
2017-12-31T06:35:19.233Z,20.00
2017-12-31T06:36:19.942Z,12.00
2017-12-31T06:37:20.648Z,10.00
2017-12-31T06:38:21.366Z,5.00
2017-12-31T06:39:22.074Z,13.00
2017-12-31T06:40:22.781Z,14.00
2017-12-31T06:41:23.489Z,10.00
2017-12-31T06:42:24.195Z,14.00
2017-12-31T06:43:24.904Z,16.00
2017-12-31T06:44:25.612Z,11.00
2017-12-31T06:45:26.318Z,14.00
2017-12-31T06:46:27.024Z,5.00
2017-12-31T06:47:27.730Z,15.00
2017-12-31T06:48:28.437Z,4.00
2017-12-31T06:49:29.144Z,6.00
2017-12-31T06:50:29.867Z,15.00
2017-12-31T06:51:30.577Z,17.00
2017-12-31T06:52:31.294Z,29.00
2017-12-31T06:53:32.003Z,14.00
2017-12-31T06:54:32.722Z,13.00
2017-12-31T06:55:33.429Z,13.00
2017-12-31T06:56:34.142Z,13.00
2017-12-31T06:57:34.843Z,6.00
2017-12-31T06:58:35.550Z,10.00
2017-12-31T06:59:36.257Z,11.00
2017-12-31T07:00:36.966Z,11.00
2017-12-31T07:01:37.689Z,28.00
2017-12-31T07:02:38.409Z,10.00
2017-12-31T07:03:39.117Z,9.00
2017-12-31T07:04:39.826Z,27.00
2017-12-31T07:05:40.534Z,13.00
2017-12-31T07:06:41.241Z,22.00
2017-12-31T07:07:41.948Z,7.00
2017-12-31T07:08:42.657Z,21.00
2017-12-31T07:09:43.363Z,11.00
2017-12-31T07:10:44.071Z,31.00
2017-12-31T07:11:44.793Z,21.00
2017-12-31T07:12:45.503Z,26.00
2017-12-31T07:13:46.221Z,10.00
2017-12-31T07:14:46.944Z,50.00
2017-12-31T07:15:47.653Z,28.00
2017-12-31T07:16:48.374Z,36.00
2017-12-31T07:17:49.083Z,20.00
2017-12-31T07:18:49.805Z,14.00
2017-12-31T07:19:50.529Z,19.00
2017-12-31T07:20:51.253Z,24.00
2017-12-31T07:21:51.961Z,31.00
2017-12-31T07:22:52.670Z,24.00
2017-12-31T07:23:53.392Z,16.00
2017-12-31T07:24:54.101Z,25.00
2017-12-31T07:25:54.810Z,20.00
2017-12-31T07:26:55.519Z,29.00
2017-12-31T07:27:56.243Z,54.00
2017-12-31T07:28:56.953Z,16.00
2017-12-31T07:29:57.662Z,23.00
2017-12-31T07:30:58.373Z,19.00
2017-12-31T07:31:59.094Z,16.00
2017-12-31T07:32:59.818Z,14.00
2017-12-31T07:34:00.529Z,31.00
2017-12-31T07:35:01.240Z,32.00
2017-12-31T07:36:01.950Z,16.00
2017-12-31T07:37:02.658Z,27.00
2017-12-31T07:38:03.366Z,23.00
2017-12-31T07:39:04.076Z,24.00
2017-12-31T07:40:04.788Z,19.00
2017-12-31T07:41:05.494Z,10.00
2017-12-31T07:42:06.200Z,8.00
2017-12-31T07:43:06.908Z,18.00
2017-12-31T07:44:07.617Z,26.00
2017-12-31T07:45:08.339Z,26.00
2017-12-31T07:46:09.048Z,13.00
2017-12-31T07:47:09.755Z,20.00
2017-12-31T07:48:10.483Z,17.00
2017-12-31T07:49:11.187Z,16.00
2017-12-31T07:50:11.894Z,8.00
2017-12-31T07:51:12.602Z,23.00
2017-12-31T07:52:13.353Z,10.00
2017-12-31T07:53:14.021Z,10.00
2017-12-31T07:54:14.728Z,13.00
2017-12-31T07:55:15.437Z,22.00
2017-12-31T07:56:16.157Z,37.00
2017-12-31T07:57:16.867Z,31.00
2017-12-31T07:58:17.574Z,27.00
2017-12-31T07:59:18.285Z,11.00
2017-12-31T08:00:18.995Z,17.00
2017-12-31T08:01:19.705Z,25.00
2017-12-31T08:02:20.418Z,26.00
2017-12-31T08:03:21.130Z,14.00
2017-12-31T08:04:21.852Z,18.00
2017-12-31T08:05:22.576Z,22.00
2017-12-31T08:06:23.286Z,15.00
2017-12-31T08:07:23.997Z,9.00
2017-12-31T08:08:24.708Z,39.00
2017-12-31T08:09:25.418Z,6.00
2017-12-31T08:10:26.127Z,17.00
2017-12-31T08:11:26.837Z,9.00
2017-12-31T08:12:27.547Z,16.00
2017-12-31T08:13:28.269Z,36.00
2017-12-31T08:14:28.982Z,23.00
2017-12-31T08:15:29.691Z,45.00
2017-12-31T08:16:30.400Z,16.00
2017-12-31T08:17:31.115Z,13.00
2017-12-31T08:18:31.827Z,13.00
2017-12-31T08:19:32.538Z,26.00
2017-12-31T08:20:33.263Z,11.00
2017-12-31T08:21:33.972Z,11.00
2017-12-31T08:22:34.684Z,13.00
2017-12-31T08:23:35.647Z,25.00
2017-12-31T08:24:36.358Z,12.00
2017-12-31T08:25:37.070Z,20.00
2017-12-31T08:26:37.795Z,23.00
2017-12-31T08:27:38.502Z,9.00
2017-12-31T08:28:39.463Z,19.00
2017-12-31T08:30:55.392Z,10.00
2017-12-31T08:31:56.103Z,4.00
2017-12-31T08:32:56.813Z,16.00
2017-12-31T08:33:57.524Z,24.00
2017-12-31T08:34:58.234Z,5.00
2017-12-31T08:35:58.945Z,4.00
2017-12-31T08:36:59.669Z,10.00
2017-12-31T08:38:00.381Z,16.00
2017-12-31T08:39:01.090Z,6.00
2017-12-31T08:40:01.803Z,13.00
2017-12-31T08:41:02.515Z,18.00
2017-12-31T08:42:03.227Z,60.00
2017-12-31T08:43:03.951Z,28.00
2017-12-31T08:44:04.663Z,41.00
2017-12-31T08:45:05.390Z,10.00
2017-12-31T08:46:06.099Z,8.00
2017-12-31T08:47:06.811Z,20.00
2017-12-31T08:48:07.522Z,13.00
2017-12-31T08:49:08.249Z,15.00
2017-12-31T08:50:08.956Z,16.00
2017-12-31T08:51:09.681Z,16.00
2017-12-31T08:52:10.392Z,21.00
2017-12-31T08:53:11.104Z,13.00
2017-12-31T08:54:11.817Z,13.00
2017-12-31T08:55:12.525Z,18.00
2017-12-31T08:56:13.235Z,7.00
2017-12-31T08:57:13.945Z,14.00
2017-12-31T08:58:14.672Z,14.00
2017-12-31T08:59:15.382Z,6.00
2017-12-31T09:00:16.091Z,8.00
2017-12-31T09:01:16.804Z,20.00
2017-12-31T09:02:17.516Z,13.00
2017-12-31T09:03:18.230Z,17.00
2017-12-31T09:04:18.954Z,17.00
2017-12-31T09:05:19.680Z,17.00
2017-12-31T09:06:20.391Z,17.00
2017-12-31T09:07:21.101Z,10.00
2017-12-31T09:08:21.811Z,8.00
2017-12-31T09:09:22.522Z,9.00
2017-12-31T09:10:23.231Z,10.00
2017-12-31T09:11:23.944Z,9.00
2017-12-31T09:12:24.670Z,21.00
2017-12-31T09:13:25.394Z,7.00
2017-12-31T09:14:26.120Z,20.00
2017-12-31T09:15:26.833Z,12.00
2017-12-31T09:16:27.544Z,44.00
2017-12-31T09:17:28.257Z,15.00
2017-12-31T09:18:28.969Z,34.00
2017-12-31T09:19:29.695Z,20.00
2017-12-31T09:20:30.405Z,9.00
2017-12-31T09:21:31.129Z,11.00
2017-12-31T09:22:31.844Z,7.00
2017-12-31T09:23:32.550Z,20.00
2017-12-31T09:24:33.282Z,15.00
2017-12-31T09:25:33.990Z,29.00
2017-12-31T09:26:34.714Z,21.00
2017-12-31T09:27:35.425Z,16.00
2017-12-31T09:28:36.135Z,18.00
2017-12-31T09:29:36.845Z,33.00
2017-12-31T09:30:37.557Z,8.00
2017-12-31T09:31:38.270Z,17.00
2017-12-31T09:32:38.987Z,21.00
2017-12-31T09:33:39.693Z,52.00
2017-12-31T09:34:40.406Z,13.00
2017-12-31T09:35:41.117Z,14.00
2017-12-31T09:36:41.843Z,18.00
2017-12-31T09:37:42.567Z,9.00
2017-12-31T09:38:43.278Z,7.00
2017-12-31T09:39:43.988Z,6.00
2017-12-31T09:40:44.698Z,8.00
2017-12-31T09:41:45.421Z,5.00
2017-12-31T09:42:46.148Z,6.00
2017-12-31T09:43:46.874Z,17.00
2017-12-31T09:44:47.587Z,20.00
2017-12-31T09:45:48.308Z,4.00
2017-12-31T09:46:49.019Z,5.00
2017-12-31T09:47:49.729Z,5.00
2017-12-31T09:48:50.445Z,5.00
2017-12-31T09:49:51.167Z,6.00
2017-12-31T09:50:51.877Z,10.00
2017-12-31T09:51:52.590Z,13.00
2017-12-31T09:52:53.301Z,33.00
2017-12-31T09:53:54.032Z,24.00
2017-12-31T09:54:54.750Z,26.00
2017-12-31T09:55:55.462Z,9.00
2017-12-31T09:56:56.173Z,13.00
2017-12-31T09:57:56.886Z,12.00
2017-12-31T09:58:57.611Z,19.00
2017-12-31T09:59:58.323Z,15.00
2017-12-31T10:00:59.035Z,6.00
2017-12-31T10:01:59.747Z,8.00
2017-12-31T10:03:00.458Z,61.00
2017-12-31T10:04:01.168Z,8.00
2017-12-31T10:05:01.879Z,21.00
2017-12-31T10:06:02.603Z,7.00
2017-12-31T10:07:03.326Z,8.00
2017-12-31T10:08:04.037Z,10.00
2017-12-31T10:09:04.748Z,12.00
2017-12-31T10:10:05.459Z,9.00
2017-12-31T10:11:06.167Z,6.00
2017-12-31T10:12:06.879Z,11.00
2017-12-31T10:13:07.594Z,11.00
2017-12-31T10:14:08.305Z,28.00
2017-12-31T10:15:09.016Z,6.00
2017-12-31T10:16:09.728Z,17.00
2017-12-31T10:17:10.448Z,5.00
2017-12-31T10:18:11.159Z,13.00
2017-12-31T10:19:11.876Z,10.00
2017-12-31T10:20:12.583Z,8.00
2017-12-31T10:21:13.309Z,14.00
2017-12-31T10:22:14.026Z,20.00
2017-12-31T10:23:14.734Z,10.00
2017-12-31T10:24:15.458Z,11.00
2017-12-31T10:25:16.170Z,7.00
2017-12-31T10:26:16.881Z,6.00
2017-12-31T10:27:17.606Z,3.00
2017-12-31T10:28:18.317Z,6.00
2017-12-31T10:29:19.043Z,31.00
2017-12-31T10:30:19.779Z,8.00
2017-12-31T10:31:20.479Z,8.00
2017-12-31T10:32:21.221Z,28.00
2017-12-31T10:33:21.945Z,9.00
2017-12-31T10:34:22.671Z,9.00
2017-12-31T10:35:23.384Z,4.00
2017-12-31T10:36:24.108Z,12.00
2017-12-31T10:37:24.820Z,8.00
2017-12-31T10:38:25.530Z,9.00
2017-12-31T10:39:26.242Z,13.00
2017-12-31T10:40:26.954Z,3.00
2017-12-31T10:41:27.679Z,8.00
2017-12-31T10:42:28.391Z,28.00
2017-12-31T10:43:29.104Z,9.00
2017-12-31T10:44:29.817Z,15.00
2017-12-31T10:45:30.563Z,8.00
2017-12-31T10:46:31.289Z,22.00
2017-12-31T10:47:32.005Z,15.00
2017-12-31T10:48:32.719Z,8.00
2017-12-31T10:49:33.430Z,5.00
2017-12-31T10:50:34.142Z,30.00
2017-12-31T10:51:34.854Z,6.00
2017-12-31T10:52:35.567Z,8.00
2017-12-31T10:53:36.281Z,7.00
2017-12-31T10:54:36.994Z,10.00
2017-12-31T10:55:37.709Z,10.00
2017-12-31T10:56:38.426Z,3.00
2017-12-31T10:57:39.141Z,9.00
2017-12-31T10:58:39.856Z,7.00
2017-12-31T10:59:40.580Z,5.00
2017-12-31T11:00:41.309Z,5.00
2017-12-31T11:01:42.022Z,8.00
2017-12-31T11:02:42.741Z,8.00
2017-12-31T11:03:43.447Z,4.00
2017-12-31T11:04:44.163Z,18.00
2017-12-31T11:05:44.876Z,4.00
2017-12-31T11:06:45.589Z,4.00
2017-12-31T11:07:46.303Z,13.00
2017-12-31T11:08:47.018Z,12.00
2017-12-31T11:09:47.733Z,5.00
2017-12-31T11:10:48.448Z,22.00
2017-12-31T11:11:49.163Z,15.00
2017-12-31T11:12:49.878Z,4.00
2017-12-31T11:13:50.593Z,10.00
2017-12-31T11:14:51.308Z,3.00
2017-12-31T11:15:52.037Z,7.00
2017-12-31T11:16:52.751Z,18.00
2017-12-31T11:17:53.479Z,6.00
2017-12-31T11:18:54.194Z,7.00
2017-12-31T11:19:54.910Z,11.00
2017-12-31T11:20:55.645Z,16.00
2017-12-31T11:21:56.337Z,3.00
2017-12-31T11:22:57.050Z,7.00
2017-12-31T11:23:57.762Z,4.00
2017-12-31T11:24:58.475Z,13.00
2017-12-31T11:25:59.187Z,8.00
2017-12-31T11:26:59.901Z,13.00
2017-12-31T11:28:00.634Z,15.00
2017-12-31T11:29:01.350Z,13.00
2017-12-31T11:30:02.055Z,7.00
2017-12-31T11:31:02.769Z,5.00
2017-12-31T11:32:03.482Z,10.00
2017-12-31T11:33:04.197Z,10.00
2017-12-31T11:34:04.924Z,9.00
2017-12-31T11:35:05.637Z,4.00
2017-12-31T11:36:06.351Z,12.00
2017-12-31T11:37:07.067Z,6.00
2017-12-31T11:38:07.778Z,9.00
2017-12-31T11:39:08.508Z,8.00
2017-12-31T11:40:09.237Z,14.00
2017-12-31T11:41:09.951Z,6.00
2017-12-31T11:42:10.666Z,18.00
2017-12-31T11:43:11.380Z,3.00
2017-12-31T11:44:12.095Z,8.00
2017-12-31T11:45:12.814Z,5.00
2017-12-31T11:46:13.523Z,9.00
2017-12-31T11:47:14.236Z,6.00
2017-12-31T11:48:14.951Z,5.00
2017-12-31T11:49:15.667Z,27.00
2017-12-31T11:50:16.381Z,8.00
2017-12-31T11:51:17.096Z,18.00
2017-12-31T11:52:17.811Z,21.00
2017-12-31T11:53:18.534Z,4.00
2017-12-31T11:54:19.243Z,8.00
2017-12-31T11:55:19.982Z,12.00
2017-12-31T11:56:20.675Z,18.00
2017-12-31T11:57:21.389Z,4.00
2017-12-31T11:58:22.103Z,5.00
2017-12-31T11:59:22.820Z,25.00
2017-12-31T12:00:23.551Z,11.00
2017-12-31T12:01:24.266Z,8.00
2017-12-31T12:02:24.980Z,6.00
2017-12-31T12:03:25.694Z,8.00
2017-12-31T12:04:26.415Z,2.00
2017-12-31T12:05:27.125Z,6.00
2017-12-31T12:06:27.842Z,12.00
2017-12-31T12:07:28.558Z,9.00
2017-12-31T12:08:29.275Z,5.00
2017-12-31T12:09:30.005Z,4.00
2017-12-31T12:10:30.718Z,4.00
2017-12-31T12:11:31.448Z,5.00
2017-12-31T12:12:32.163Z,2.00
2017-12-31T12:13:32.878Z,3.00
2017-12-31T12:14:33.590Z,5.00
2017-12-31T12:15:34.317Z,16.00
2017-12-31T12:16:35.030Z,16.00
2017-12-31T12:17:35.742Z,4.00
2017-12-31T12:18:36.453Z,4.00
2017-12-31T12:19:37.181Z,12.00
2017-12-31T12:20:37.893Z,4.00
2017-12-31T12:21:38.620Z,20.00
2017-12-31T12:22:39.333Z,2.00
2017-12-31T12:23:40.044Z,4.00
2017-12-31T12:24:40.758Z,10.00
2017-12-31T12:25:41.470Z,6.00
2017-12-31T12:26:42.185Z,6.00
2017-12-31T12:27:42.919Z,12.00
2017-12-31T12:28:43.635Z,10.00
2017-12-31T12:29:44.346Z,4.00
2017-12-31T12:30:45.074Z,15.00
2017-12-31T12:31:45.786Z,5.00
2017-12-31T12:32:46.498Z,10.00
2017-12-31T12:33:47.210Z,3.00
2017-12-31T12:34:47.923Z,3.00
2017-12-31T12:35:48.636Z,6.00
2017-12-31T12:36:49.350Z,14.00
2017-12-31T12:37:50.061Z,4.00
2017-12-31T12:38:50.773Z,7.00
2017-12-31T12:39:51.487Z,9.00
2017-12-31T12:40:52.214Z,4.00
2017-12-31T12:41:52.927Z,7.00
2017-12-31T12:42:53.640Z,7.00
2017-12-31T12:43:54.354Z,5.00
2017-12-31T12:44:55.066Z,6.00
2017-12-31T12:45:55.778Z,4.00
2017-12-31T12:46:56.502Z,6.00
2017-12-31T12:47:57.213Z,3.00
2017-12-31T12:48:57.927Z,12.00
2017-12-31T12:49:58.652Z,12.00
2017-12-31T12:50:59.363Z,5.00
2017-12-31T12:52:00.082Z,3.00
2017-12-31T12:53:00.786Z,5.00
2017-12-31T12:54:01.497Z,6.00
2017-12-31T12:55:02.211Z,4.00
2017-12-31T12:56:02.937Z,3.00
2017-12-31T12:57:03.688Z,3.00
2017-12-31T12:58:04.399Z,6.00
2017-12-31T12:59:05.112Z,12.00
2017-12-31T13:00:05.824Z,5.00
2017-12-31T13:01:06.550Z,8.00
2017-12-31T13:02:07.263Z,4.00
2017-12-31T13:03:07.977Z,3.00
2017-12-31T13:04:08.707Z,17.00
2017-12-31T13:05:09.417Z,7.00
2017-12-31T13:06:10.130Z,15.00
2017-12-31T13:07:10.841Z,10.00
2017-12-31T13:08:11.566Z,3.00
2017-12-31T13:09:12.292Z,5.00